Time;durP1;ratioP1;P1;durP2;ratioP2;P2;SDS_P1;SDS_P2;PMS_P1;PMS_P2;Temp;Humidity;BMP_temperature;BMP_pressure;BME280_temperature;BME280_humidity;BME280_pressure;Samples;Min_cycle;Max_cycle;Signal;HPM_P1;HPM_P2
2022/05/06 00:01:42;;;;;;;20.30;10.13;;;13.10;99.90;;;;;;5051972;28;20166;-48
2022/05/06 00:04:07;;;;;;;18.70;10.65;;;13.00;99.90;;;;;;5051639;28;20297;-48
2022/05/06 00:06:33;;;;;;;19.20;10.10;;;12.90;99.90;;;;;;5052335;28;20210;-46
2022/05/06 00:08:59;;;;;;;15.00;10.48;;;12.70;99.90;;;;;;5052105;28;20304;-46
2022/05/06 00:11:25;;;;;;;21.73;11.32;;;12.70;99.90;;;;;;5052074;28;20254;-46
2022/05/06 00:13:52;;;;;;;15.85;10.70;;;12.80;99.90;;;;;;5051891;28;20163;-47
2022/05/06 00:16:21;;;;;;;18.30;9.93;;;12.90;99.90;;;;;;5052063;28;20171;-48
2022/05/06 00:18:47;;;;;;;22.38;11.07;;;12.80;99.90;;;;;;5051788;28;20551;-46
2022/05/06 00:21:13;;;;;;;20.35;10.80;;;12.70;99.90;;;;;;5052065;28;20180;-46
2022/05/06 00:23:39;;;;;;;21.15;11.70;;;12.70;99.90;;;;;;5051782;28;20663;-47
2022/05/06 00:26:04;;;;;;;19.52;11.27;;;12.80;99.90;;;;;;5052430;28;20177;-47
2022/05/06 00:28:30;;;;;;;18.98;11.07;;;12.80;99.90;;;;;;5051746;28;20257;-47
2022/05/06 00:30:57;;;;;;;21.65;12.50;;;12.90;99.90;;;;;;5051819;28;20171;-46
2022/05/06 00:33:24;;;;;;;27.10;12.57;;;12.90;99.90;;;;;;5051701;28;20224;-46
2022/05/06 00:35:57;;;;;;;20.98;12.88;;;12.90;99.90;;;;;;5051692;28;20163;-46
2022/05/06 00:38:23;;;;;;;24.00;13.15;;;12.90;99.90;;;;;;5051657;28;20202;-47
2022/05/06 00:40:48;;;;;;;18.58;12.63;;;12.90;99.90;;;;;;5051657;28;20167;-46
2022/05/06 00:43:14;;;;;;;25.60;13.93;;;12.80;99.90;;;;;;5051561;28;20162;-47
2022/05/06 00:45:52;;;;;;;20.88;14.05;;;12.80;99.90;;;;;;5051642;28;20182;-48
2022/05/06 00:48:19;;;;;;;24.95;15.10;;;12.90;99.90;;;;;;5051853;28;20165;-48
2022/05/06 00:50:45;;;;;;;22.88;15.65;;;12.90;99.90;;;;;;5051579;28;20197;-45
2022/05/06 00:53:12;;;;;;;24.52;16.08;;;13.00;99.90;;;;;;5051795;28;20177;-46
2022/05/06 00:55:38;;;;;;;26.83;17.83;;;13.00;99.90;;;;;;5051468;28;20165;-46
2022/05/06 00:58:03;;;;;;;28.92;18.92;;;12.80;99.90;;;;;;5051997;28;20175;-47
2022/05/06 01:00:29;;;;;;;28.05;18.15;;;12.60;99.90;;;;;;5051423;28;20175;-47
2022/05/06 01:02:55;;;;;;;31.10;19.20;;;12.50;99.90;;;;;;5051416;28;20221;-45
2022/05/06 01:05:22;;;;;;;31.25;19.65;;;12.50;99.90;;;;;;5051333;28;20208;-46
2022/05/06 01:07:49;;;;;;;31.77;20.58;;;12.50;99.90;;;;;;5051364;28;20163;-45
2022/05/06 01:10:18;;;;;;;28.20;19.65;;;12.50;99.90;;;;;;5052582;28;20163;-46
2022/05/06 01:12:43;;;;;;;27.80;21.17;;;12.50;99.90;;;;;;5055126;28;20163;-46
2022/05/06 01:15:25;;;;;;;29.10;19.70;;;12.50;99.90;;;;;;5054963;28;20705;-47
2022/05/06 01:17:52;;;;;;;30.63;21.88;;;12.40;99.90;;;;;;5055290;28;20174;-47
2022/05/06 01:20:19;;;;;;;30.63;20.70;;;12.40;99.90;;;;;;5054889;28;20543;-46
2022/05/06 01:22:46;;;;;;;31.77;23.20;;;12.50;99.90;;;;;;5054980;28;20162;-47
2022/05/06 01:25:12;;;;;;;32.53;21.85;;;12.50;99.90;;;;;;5054781;28;20202;-48
2022/05/06 01:27:43;;;;;;;34.17;22.23;;;12.50;99.90;;;;;;5054805;28;20170;-46
2022/05/06 01:30:12;;;;;;;35.10;22.45;;;12.60;99.90;;;;;;5055008;28;20178;-47
2022/05/06 01:32:38;;;;;;;28.55;22.92;;;12.50;99.90;;;;;;5054821;28;20245;-48
2022/05/06 01:35:05;;;;;;;31.30;23.15;;;12.40;99.90;;;;;;5055008;28;20171;-48
2022/05/06 01:37:35;;;;;;;31.33;24.58;;;12.50;99.90;;;;;;5054979;28;20640;-50
2022/05/06 01:40:03;;;;;;;32.13;24.50;;;12.40;99.90;;;;;;5054974;28;20531;-48
2022/05/06 01:42:31;;;;;;;30.13;24.83;;;12.40;99.90;;;;;;5054832;28;20178;-49
2022/05/06 01:44:57;;;;;;;37.30;25.30;;;12.50;99.90;;;;;;5054392;28;20618;-50
2022/05/06 01:47:26;;;;;;;35.78;26.77;;;12.50;99.90;;;;;;5054663;28;20194;-49
2022/05/06 01:49:53;;;;;;;39.42;28.48;;;12.40;99.90;;;;;;5054359;28;20192;-47
2022/05/06 01:52:19;;;;;;;41.65;28.70;;;12.40;99.90;;;;;;5054387;28;20254;-48
2022/05/06 01:54:46;;;;;;;38.38;29.80;;;12.40;99.90;;;;;;5054299;28;20163;-48
2022/05/06 01:57:13;;;;;;;41.22;30.13;;;12.40;99.90;;;;;;5054487;28;20170;-48
2022/05/06 01:59:38;;;;;;;40.10;29.60;;;12.30;99.90;;;;;;5054331;28;20178;-47
2022/05/06 02:02:04;;;;;;;41.35;28.80;;;12.20;99.90;;;;;;5054376;28;20167;-46
2022/05/06 02:07:14;;;;;;;46.58;32.78;;;12.10;99.90;;;;;;5054298;28;20249;-49
2022/05/06 02:09:39;;;;;;;44.70;33.88;;;12.20;99.90;;;;;;5054029;28;20171;-49
2022/05/06 02:12:06;;;;;;;43.40;32.35;;;12.20;99.90;;;;;;5054567;28;20217;-49
2022/05/06 02:14:31;;;;;;;44.22;32.33;;;12.10;99.90;;;;;;5054159;28;20175;-48
2022/05/06 02:16:57;;;;;;;46.15;34.22;;;12.10;99.90;;;;;;5053881;28;20177;-46
2022/05/06 02:19:22;;;;;;;49.40;33.50;;;12.00;99.90;;;;;;5053875;28;20169;-46
2022/05/06 02:21:48;;;;;;;46.97;33.30;;;12.00;99.90;;;;;;5053365;28;20580;-48
2022/05/06 02:24:13;;;;;;;47.60;34.45;;;12.00;99.90;;;;;;5053777;28;20218;-48
2022/05/06 02:26:39;;;;;;;53.97;33.78;;;11.90;99.90;;;;;;5053647;28;20208;-47
2022/05/06 02:29:05;;;;;;;45.42;34.13;;;11.90;99.90;;;;;;5052669;28;20163;-46
2022/05/06 02:34:18;;;;;;;48.13;34.28;;;12.10;99.90;;;;;;5053580;28;20177;-47
2022/05/06 02:36:45;;;;;;;44.25;33.20;;;12.00;99.90;;;;;;5053793;28;20171;-47
2022/05/06 02:39:11;;;;;;;50.58;33.95;;;12.10;99.90;;;;;;5053461;28;20167;-47
2022/05/06 02:41:36;;;;;;;43.90;33.20;;;12.10;99.90;;;;;;5053396;28;20174;-46
2022/05/06 02:44:04;;;;;;;45.40;32.83;;;12.10;99.90;;;;;;5053861;28;20225;-46
2022/05/06 02:46:36;;;;;;;44.55;32.35;;;12.10;99.90;;;;;;5053638;28;20174;-47
2022/05/06 02:49:02;;;;;;;45.65;34.20;;;12.00;99.90;;;;;;5053529;28;20155;-47
2022/05/06 02:51:28;;;;;;;49.80;35.58;;;12.00;99.90;;;;;;5053187;28;20209;-47
2022/05/06 02:53:56;;;;;;;45.80;33.83;;;12.00;99.90;;;;;;5051884;28;20167;-46
2022/05/06 02:56:22;;;;;;;47.88;34.45;;;11.80;99.90;;;;;;5053426;28;20178;-47
2022/05/06 02:58:47;;;;;;;46.60;32.95;;;11.80;99.90;;;;;;5053337;28;20229;-48
2022/05/06 03:01:12;;;;;;;43.83;32.28;;;11.70;99.90;;;;;;5053052;28;20178;-46
2022/05/06 03:03:38;;;;;;;46.58;34.13;;;11.60;99.90;;;;;;5052705;28;20253;-47
2022/05/06 03:06:04;;;;;;;44.88;33.42;;;11.60;99.90;;;;;;5053358;28;20167;-48
2022/05/06 03:08:29;;;;;;;45.97;34.35;;;11.60;99.90;;;;;;5052873;28;20546;-45
2022/05/06 03:10:55;;;;;;;48.08;34.05;;;11.60;99.90;;;;;;5052874;28;20645;-46
2022/05/06 03:13:20;;;;;;;44.15;34.00;;;11.60;99.90;;;;;;5052957;28;20202;-47
2022/05/06 03:15:46;;;;;;;45.53;32.75;;;11.60;99.90;;;;;;5052738;28;20220;-47
2022/05/06 03:18:11;;;;;;;42.33;32.97;;;11.60;99.90;;;;;;5053024;28;20182;-48
2022/05/06 03:20:38;;;;;;;49.03;34.75;;;11.50;99.90;;;;;;5052698;28;20170;-48
2022/05/06 03:23:04;;;;;;;44.17;34.20;;;11.60;99.90;;;;;;5053101;28;20170;-47
2022/05/06 03:25:30;;;;;;;49.03;35.63;;;11.50;99.90;;;;;;5052490;28;20213;-46
2022/05/06 03:28:07;;;;;;;48.20;36.78;;;11.60;99.90;;;;;;5052573;28;20162;-49
2022/05/06 03:30:40;;;;;;;47.70;31.63;;;11.60;99.90;;;;;;5052936;28;20182;-47
2022/05/06 03:33:10;;;;;;;42.58;33.35;;;11.60;99.90;;;;;;5051854;28;20163;-45
2022/05/06 03:35:37;;;;;;;54.85;35.08;;;11.50;99.90;;;;;;5052232;28;20174;-46
2022/05/06 03:38:04;;;;;;;49.78;33.63;;;11.50;99.90;;;;;;5052768;28;20163;-47
2022/05/06 03:40:29;;;;;;;45.45;34.55;;;11.40;99.90;;;;;;5052605;28;20175;-46
2022/05/06 03:42:55;;;;;;;43.88;33.90;;;11.40;99.90;;;;;;5052284;28;21109;-46
2022/05/06 03:45:21;;;;;;;44.13;32.92;;;11.40;99.90;;;;;;5052381;28;20217;-48
2022/05/06 03:47:46;;;;;;;45.90;33.72;;;11.40;99.90;;;;;;5052144;28;20514;-46
2022/05/06 03:52:56;;;;;;;54.03;35.72;;;11.30;99.90;;;;;;5052331;28;20173;-46
2022/05/06 03:55:21;;;;;;;53.63;35.25;;;11.20;99.90;;;;;;5052329;28;20529;-45
2022/05/06 03:57:47;;;;;;;51.15;35.00;;;11.30;99.90;;;;;;5052041;28;20170;-47
2022/05/06 04:00:15;;;;;;;46.63;34.60;;;11.30;99.90;;;;;;5052259;28;20174;-48
2022/05/06 04:02:41;;;;;;;51.45;36.47;;;11.30;99.90;;;;;;5051984;28;20229;-48
2022/05/06 04:05:07;;;;;;;48.47;35.20;;;11.20;99.90;;;;;;5051811;28;20630;-45
2022/05/06 04:07:33;;;;;;;49.25;36.55;;;11.30;99.90;;;;;;5052202;28;20167;-47
2022/05/06 04:09:58;;;;;;;50.78;36.72;;;11.30;99.90;;;;;;5051842;28;20174;-47
2022/05/06 04:12:24;;;;;;;49.03;35.47;;;11.30;99.90;;;;;;5051965;28;20170;-49
2022/05/06 04:14:50;;;;;;;53.72;37.25;;;11.30;99.90;;;;;;5051936;28;20167;-50
2022/05/06 04:17:17;;;;;;;50.25;36.38;;;11.30;99.90;;;;;;5051866;28;20249;-49
2022/05/06 04:23:29;;;;;;;54.95;36.22;;;11.30;99.90;;;;;;5051950;28;20175;-49
2022/05/06 04:25:21;;;;;;;47.67;35.90;;;11.30;99.90;;;;;;5051620;28;20709;-46
2022/05/06 04:27:46;;;;;;;51.13;38.58;;;11.30;99.90;;;;;;5050592;28;20171;-45
2022/05/06 04:30:13;;;;;;;50.55;36.22;;;11.30;99.90;;;;;;5051938;28;20216;-45
2022/05/06 04:32:39;;;;;;;56.08;37.13;;;11.40;99.90;;;;;;5051698;28;20174;-45
2022/05/06 04:35:06;;;;;;;48.00;35.97;;;11.40;99.90;;;;;;5052227;28;20163;-46
2022/05/06 04:37:35;;;;;;;55.50;36.60;;;11.70;99.90;;;;;;5052204;28;20202;-46
2022/05/06 04:40:01;;;;;;;54.38;37.15;;;11.40;99.90;;;;;;5051579;28;20163;-46
2022/05/06 04:42:27;;;;;;;49.22;36.20;;;11.40;99.90;;;;;;5051564;28;20559;-46
2022/05/06 04:44:53;;;;;;;55.22;36.92;;;11.40;99.90;;;;;;5052106;28;20208;-46
2022/05/06 04:47:18;;;;;;;49.50;36.78;;;11.50;99.90;;;;;;5055575;28;20159;-46
2022/05/06 04:49:44;;;;;;;48.58;35.75;;;11.40;99.90;;;;;;5055477;28;20213;-46
2022/05/06 04:52:09;;;;;;;55.38;36.63;;;11.40;99.90;;;;;;5055788;28;20631;-46
2022/05/06 04:54:35;;;;;;;47.25;35.75;;;11.50;99.90;;;;;;5055760;28;20174;-46
2022/05/06 04:57:01;;;;;;;50.38;36.00;;;11.60;99.90;;;;;;5055313;28;20167;-46
2022/05/06 04:59:27;;;;;;;52.55;37.75;;;11.50;99.90;;;;;;5055589;28;20583;-45
2022/05/06 05:01:52;;;;;;;49.17;38.15;;;11.60;99.90;;;;;;5055193;28;20190;-45
2022/05/06 05:04:18;;;;;;;50.15;36.78;;;11.60;99.90;;;;;;5054991;28;20265;-46
2022/05/06 05:06:43;;;;;;;58.53;38.47;;;11.60;99.90;;;;;;5055270;28;20205;-47
2022/05/06 05:09:09;;;;;;;52.55;37.80;;;11.60;99.90;;;;;;5054798;28;20171;-50
2022/05/06 05:11:35;;;;;;;50.10;37.67;;;11.60;99.90;;;;;;5055453;28;20171;-49
2022/05/06 05:14:03;;;;;;;52.45;36.97;;;11.70;99.90;;;;;;5055320;28;20171;-48
2022/05/06 05:16:29;;;;;;;50.85;39.05;;;11.80;99.90;;;;;;5055154;28;20262;-48
2022/05/06 05:18:54;;;;;;;48.42;36.35;;;11.90;99.90;;;;;;5054702;28;20227;-46
2022/05/06 05:21:20;;;;;;;53.38;38.92;;;11.90;99.90;;;;;;5054797;28;20171;-47
2022/05/06 05:23:45;;;;;;;50.40;38.13;;;12.00;99.90;;;;;;5054584;28;20202;-49
2022/05/06 05:26:12;;;;;;;50.83;38.40;;;12.00;99.90;;;;;;5054938;28;20288;-49
2022/05/06 05:28:37;;;;;;;49.08;36.90;;;12.00;99.90;;;;;;5054559;28;20617;-48
2022/05/06 05:31:04;;;;;;;50.45;37.13;;;12.00;99.90;;;;;;5055232;28;20216;-49
2022/05/06 05:33:29;;;;;;;51.97;38.17;;;12.10;99.90;;;;;;5054576;28;20196;-49
2022/05/06 05:35:55;;;;;;;51.63;36.85;;;12.20;99.90;;;;;;5054474;28;20251;-49
2022/05/06 05:38:20;;;;;;;52.70;40.10;;;12.20;99.90;;;;;;5054464;28;20243;-49
2022/05/06 05:40:46;;;;;;;54.63;39.28;;;12.40;99.90;;;;;;5054359;28;20194;-46
2022/05/06 05:48:19;;;;;;;50.88;37.92;;;12.60;99.90;;;;;;5054565;28;20174;-48
2022/05/06 05:48:42;;;;;;;51.63;37.08;;;12.80;99.90;;;;;;5054310;28;20177;-47
2022/05/06 05:51:08;;;;;;;49.63;35.80;;;12.90;99.90;;;;;;5054421;28;20253;-48
2022/05/06 05:53:34;;;;;;;48.28;38.13;;;12.80;99.90;;;;;;5054457;28;20159;-47
2022/05/06 05:55:59;;;;;;;51.53;39.63;;;12.90;99.90;;;;;;5053692;28;20166;-48
2022/05/06 05:58:25;;;;;;;54.92;39.47;;;12.90;99.90;;;;;;5053466;28;20573;-49
2022/05/06 06:00:51;;;;;;;53.55;37.38;;;13.00;99.90;;;;;;5053221;28;20181;-49
2022/05/06 06:03:17;;;;;;;53.00;39.08;;;12.90;99.90;;;;;;5053937;28;20218;-46
2022/05/06 06:05:42;;;;;;;55.65;39.72;;;13.00;99.90;;;;;;5053995;28;20214;-47
2022/05/06 06:08:08;;;;;;;50.10;37.53;;;13.20;99.90;;;;;;5053999;28;20555;-47
2022/05/06 06:10:34;;;;;;;47.25;37.50;;;13.30;99.90;;;;;;5054139;28;20659;-47
2022/05/06 06:13:04;;;;;;;49.90;38.50;;;13.20;99.90;;;;;;5053979;28;20164;-46
2022/05/06 06:15:30;;;;;;;50.20;36.63;;;13.10;99.90;;;;;;5054146;28;20174;-47
2022/05/06 06:17:55;;;;;;;50.42;39.88;;;13.20;99.90;;;;;;5053917;28;20509;-47
2022/05/06 06:20:21;;;;;;;50.10;40.08;;;13.50;99.90;;;;;;5053798;28;20194;-47
2022/05/06 06:22:47;;;;;;;49.83;38.88;;;13.60;99.90;;;;;;5054015;28;20534;-47
2022/05/06 06:25:12;;;;;;;52.20;39.38;;;13.60;99.90;;;;;;5053698;28;20293;-47
2022/05/06 06:27:38;;;;;;;55.83;40.53;;;13.70;99.90;;;;;;5053640;28;20159;-48
2022/05/06 06:30:04;;;;;;;55.75;39.97;;;13.90;99.90;;;;;;5054086;28;20163;-47
2022/05/06 06:32:29;;;;;;;55.17;39.75;;;14.00;99.90;;;;;;5053596;28;20300;-46
2022/05/06 06:34:55;;;;;;;48.53;38.72;;;14.00;99.90;;;;;;5053883;28;20175;-51
2022/05/06 06:37:21;;;;;;;49.47;37.85;;;14.20;99.90;;;;;;5053489;28;20216;-51
2022/05/06 06:39:47;;;;;;;49.25;37.17;;;14.10;99.90;;;;;;5053508;28;20167;-51
2022/05/06 06:42:12;;;;;;;51.65;38.30;;;14.20;99.90;;;;;;5053473;28;20158;-50
2022/05/06 06:44:38;;;;;;;45.80;35.03;;;14.20;99.90;;;;;;5053295;28;20224;-50
2022/05/06 06:47:13;;;;;;;44.95;36.30;;;14.30;99.90;;;;;;5053529;28;20650;-50
2022/05/06 06:49:39;;;;;;;48.42;35.50;;;14.20;99.90;;;;;;5053125;28;20576;-51
2022/05/06 06:52:04;;;;;;;41.45;33.95;;;14.30;99.90;;;;;;5053642;28;20163;-49
2022/05/06 06:54:30;;;;;;;46.97;36.38;;;14.30;99.90;;;;;;5053142;28;20198;-48
2022/05/06 06:56:56;;;;;;;42.05;35.33;;;14.30;99.90;;;;;;5053141;28;20181;-49
2022/05/06 06:59:21;;;;;;;45.60;36.63;;;14.40;99.90;;;;;;5053012;28;20166;-48
2022/05/06 07:01:47;;;;;;;44.80;35.42;;;14.40;99.90;;;;;;5053012;28;20181;-47
2022/05/06 07:04:13;;;;;;;43.42;34.63;;;14.50;99.90;;;;;;5052718;28;20225;-48
2022/05/06 07:12:07;;;;;;;49.15;37.33;;;14.70;99.90;;;;;;5052856;28;20320;-48
2022/05/06 07:14:35;;;;;;;42.53;35.33;;;14.70;99.90;;;;;;5053059;28;20212;-50
2022/05/06 07:17:02;;;;;;;43.00;33.38;;;15.00;99.90;;;;;;5053297;28;20175;-47
2022/05/06 07:19:28;;;;;;;48.50;36.67;;;15.10;99.90;;;;;;5052888;28;20258;-47
2022/05/06 07:21:53;;;;;;;49.80;35.83;;;15.20;99.90;;;;;;5052655;28;20237;-49
2022/05/06 07:24:20;;;;;;;45.60;35.72;;;15.20;99.90;;;;;;5051279;28;20324;-48
2022/05/06 07:26:47;;;;;;;44.42;35.15;;;15.30;99.90;;;;;;5052804;28;20185;-48
2022/05/06 07:29:12;;;;;;;48.63;36.35;;;15.50;99.90;;;;;;5052536;28;20194;-51
2022/05/06 07:31:38;;;;;;;51.13;38.08;;;15.60;99.90;;;;;;5052718;28;20197;-50
2022/05/06 07:34:04;;;;;;;45.33;35.60;;;15.80;99.90;;;;;;5052692;28;20166;-51
2022/05/06 07:36:29;;;;;;;47.33;35.83;;;15.90;99.90;;;;;;5052415;28;20225;-49
2022/05/06 07:38:55;;;;;;;51.55;38.35;;;16.00;99.90;;;;;;5052497;28;20170;-47
2022/05/06 07:41:20;;;;;;;45.88;37.22;;;16.00;99.90;;;;;;5052570;28;20162;-49
2022/05/06 07:43:46;;;;;;;47.88;37.88;;;16.10;99.90;;;;;;5052503;28;20254;-48
2022/05/06 07:46:12;;;;;;;43.28;35.60;;;16.40;99.90;;;;;;5052263;28;20174;-48
2022/05/06 07:48:38;;;;;;;56.10;37.03;;;16.40;99.90;;;;;;5052781;28;20175;-48
2022/05/06 07:51:05;;;;;;;46.92;37.88;;;16.50;99.90;;;;;;5052593;28;20542;-48
2022/05/06 07:53:30;;;;;;;50.85;37.78;;;16.60;99.90;;;;;;5052408;28;20173;-49
2022/05/06 07:55:56;;;;;;;47.92;36.28;;;16.80;99.90;;;;;;5052214;28;20167;-47
2022/05/06 07:58:22;;;;;;;52.40;37.42;;;16.80;99.90;;;;;;5052076;28;20162;-50
2022/05/06 08:00:47;;;;;;;45.45;36.17;;;16.90;99.90;;;;;;5050883;28;20181;-48
2022/05/06 08:06:05;;;;;;;47.33;36.45;;;16.90;99.90;;;;;;5044073;28;20214;-47
2022/05/06 08:08:31;;;;;;;52.58;39.38;;;16.80;99.90;;;;;;5051920;28;20159;-49
2022/05/06 08:10:57;;;;;;;54.53;38.88;;;16.90;99.90;;;;;;5052228;28;20247;-49
2022/05/06 08:13:22;;;;;;;47.60;38.78;;;16.90;99.90;;;;;;5051901;28;20628;-48
2022/05/06 08:15:50;;;;;;;52.42;39.72;;;17.10;99.90;;;;;;5051790;28;20523;-48
2022/05/06 08:18:15;;;;;;;49.72;36.10;;;17.10;99.90;;;;;;5052131;28;20174;-48
2022/05/06 08:20:41;;;;;;;49.50;37.80;;;16.80;99.90;;;;;;5051225;28;20245;-49
2022/05/06 08:23:07;;;;;;;46.45;35.40;;;16.70;99.90;;;;;;5052042;28;20178;-47
2022/05/06 08:25:33;;;;;;;44.15;33.08;;;16.90;99.90;;;;;;5051929;28;20738;-48
2022/05/06 08:27:59;;;;;;;41.38;32.33;;;17.00;99.90;;;;;;5051768;28;20237;-49
2022/05/06 08:30:24;;;;;;;37.83;31.08;;;17.10;99.90;;;;;;5051793;28;20167;-48
2022/05/06 08:32:51;;;;;;;43.53;33.30;;;17.10;99.90;;;;;;5051805;28;20163;-49
2022/05/06 08:35:17;;;;;;;42.45;32.55;;;17.40;99.90;;;;;;5051735;28;20202;-49
2022/05/06 08:37:48;;;;;;;44.88;33.35;;;17.20;99.90;;;;;;5051971;28;20678;-48
2022/05/06 08:40:22;;;;;;;40.83;31.45;;;17.30;99.90;;;;;;5052019;28;20579;-47
2022/05/06 08:42:49;;;;;;;43.72;29.08;;;17.40;99.90;;;;;;5051693;28;20232;-47
2022/05/06 08:50:51;;;;;;;37.78;29.05;;;17.60;99.90;;;;;;5051785;28;20177;-48
2022/05/06 08:53:16;;;;;;;42.90;31.30;;;17.80;99.90;;;;;;5051560;28;20166;-49
2022/05/06 08:55:42;;;;;;;36.03;29.50;;;18.00;99.90;;;;;;5051184;28;20163;-49
2022/05/06 08:58:08;;;;;;;37.17;27.65;;;18.30;99.90;;;;;;5049579;28;20171;-49
2022/05/06 09:00:34;;;;;;;38.95;28.88;;;18.30;99.90;;;;;;5051586;28;20175;-48
2022/05/06 09:02:59;;;;;;;38.08;28.55;;;18.20;99.90;;;;;;5051242;28;20627;-49
2022/05/06 09:05:25;;;;;;;36.58;28.02;;;18.40;99.90;;;;;;5051473;28;21262;-48
2022/05/06 09:07:57;;;;;;;35.53;27.50;;;18.30;99.90;;;;;;5051730;28;20565;-48
2022/05/06 09:10:23;;;;;;;37.10;27.13;;;18.50;99.90;;;;;;5051170;28;20647;-49
2022/05/06 09:12:53;;;;;;;37.15;29.00;;;18.70;99.90;;;;;;5051204;28;20177;-50
2022/05/06 09:18:05;;;;;;;41.67;29.65;;;18.80;99.90;;;;;;5051411;28;20177;-50
2022/05/06 09:20:31;;;;;;;35.88;28.48;;;18.80;99.90;;;;;;5051012;28;20565;-47
2022/05/06 09:22:57;;;;;;;40.08;28.63;;;19.10;99.90;;;;;;5051114;28;20166;-48
2022/05/06 09:25:59;;;;;;;41.97;30.65;;;19.30;99.90;;;;;;5051292;28;20213;-49
2022/05/06 09:28:32;;;;;;;35.63;28.15;;;19.10;99.90;;;;;;5051146;28;20534;-49
2022/05/06 09:31:01;;;;;;;35.95;27.50;;;19.40;99.90;;;;;;5051414;28;20171;-49
2022/05/06 09:33:29;;;;;;;38.75;26.30;;;19.40;99.90;;;;;;5054269;28;20167;-48
2022/05/06 09:35:56;;;;;;;34.92;25.08;;;19.40;99.90;;;;;;5054683;28;20166;-48
2022/05/06 09:38:22;;;;;;;33.58;23.77;;;19.40;99.90;;;;;;5054103;28;20166;-49
2022/05/06 09:40:48;;;;;;;32.85;24.52;;;19.60;99.90;;;;;;5054287;28;20175;-47
2022/05/06 09:43:19;;;;;;;32.50;24.20;;;19.80;99.90;;;;;;5054253;28;20185;-50
2022/05/06 09:45:45;;;;;;;34.40;24.65;;;20.00;99.90;;;;;;5054718;28;20214;-48
2022/05/06 09:48:12;;;;;;;32.67;24.20;;;19.90;99.90;;;;;;5054509;28;20163;-50
2022/05/06 09:50:43;;;;;;;39.05;26.33;;;20.00;99.90;;;;;;5053973;28;20182;-48
2022/05/06 09:53:11;;;;;;;37.22;24.92;;;20.10;99.90;;;;;;5054303;28;20710;-49
2022/05/06 09:55:38;;;;;;;35.08;24.02;;;20.20;99.90;;;;;;5053234;28;20274;-48
2022/05/06 09:58:04;;;;;;;32.20;22.80;;;20.20;99.90;;;;;;5054681;28;20169;-48
2022/05/06 10:00:32;;;;;;;35.35;25.77;;;20.20;99.90;;;;;;5054242;28;20603;-47
2022/05/06 10:02:58;;;;;;;38.50;25.45;;;20.20;99.90;;;;;;5053924;28;20202;-48
2022/05/06 10:05:25;;;;;;;28.60;23.33;;;20.40;99.90;;;;;;5054220;28;20213;-47
2022/05/06 10:07:56;;;;;;;35.70;24.30;;;20.40;99.90;;;;;;5054081;28;20253;-48
2022/05/06 10:10:28;;;;;;;30.80;22.38;;;20.60;99.90;;;;;;5053887;28;20178;-49
2022/05/06 10:13:04;;;;;;;32.00;22.02;;;20.70;99.90;;;;;;5054209;28;20504;-48
2022/05/06 10:15:30;;;;;;;28.33;20.88;;;20.60;99.90;;;;;;5053637;28;20162;-48
2022/05/06 10:17:58;;;;;;;31.50;21.85;;;20.80;99.90;;;;;;5054178;28;20517;-47
2022/05/06 10:20:41;;;;;;;29.65;21.77;;;21.00;99.90;;;;;;5054121;28;20244;-49
2022/05/06 10:23:08;;;;;;;41.65;21.42;;;21.00;99.90;;;;;;5054102;28;20171;-47
2022/05/06 10:25:42;;;;;;;25.67;20.02;;;21.10;99.90;;;;;;5054219;28;20297;-49
2022/05/06 10:34:09;;;;;;;28.85;21.85;;;21.20;99.90;;;;;;5053538;28;20245;-47
2022/05/06 10:36:48;;;;;;;29.70;24.27;;;20.80;99.90;;;;;;5054019;28;20179;-49
2022/05/06 10:39:25;;;;;;;31.48;24.15;;;21.00;99.90;;;;;;5053541;28;20553;-51
2022/05/06 10:42:09;;;;;;;29.00;23.95;;;21.30;99.90;;;;;;5053458;28;20178;-51
2022/05/06 10:44:39;;;;;;;30.25;24.45;;;21.30;99.90;;;;;;5053249;28;20285;-51
2022/05/06 10:47:19;;;;;;;30.17;21.58;;;21.30;99.90;;;;;;5053557;28;20277;-51
2022/05/06 10:49:52;;;;;;;29.90;22.55;;;21.40;99.90;;;;;;5053243;28;20170;-50
2022/05/06 10:52:23;;;;;;;32.35;23.48;;;21.70;99.90;;;;;;5053410;28;20178;-50
2022/05/06 10:54:58;;;;;;;28.73;21.85;;;21.80;99.90;;;;;;5053397;28;20178;-51
2022/05/06 10:57:26;;;;;;;30.58;22.63;;;21.90;99.90;;;;;;5053106;28;20686;-51
2022/05/06 10:59:55;;;;;;;31.83;21.58;;;21.80;99.90;;;;;;5053337;28;20159;-50
2022/05/06 11:02:23;;;;;;;24.42;20.60;;;21.70;99.90;;;;;;5052926;28;20622;-51
2022/05/06 11:05:03;;;;;;;25.90;21.17;;;21.90;99.90;;;;;;5052822;28;20252;-48
2022/05/06 11:07:30;;;;;;;26.40;22.02;;;22.10;99.90;;;;;;5052635;28;20195;-50
2022/05/06 11:09:56;;;;;;;26.00;21.25;;;22.30;99.90;;;;;;5052940;28;20177;-50
2022/05/06 11:12:37;;;;;;;24.08;18.95;;;22.40;99.90;;;;;;5052918;28;20194;-49
2022/05/06 11:15:08;;;;;;;25.25;21.00;;;22.40;99.90;;;;;;5053338;28;20539;-48
2022/05/06 11:17:34;;;;;;;26.70;20.80;;;22.50;99.90;;;;;;5053036;28;20186;-49
2022/05/06 11:20:01;;;;;;;26.98;21.60;;;22.80;99.90;;;;;;5052766;28;20318;-48
2022/05/06 11:22:27;;;;;;;32.80;21.63;;;22.80;99.90;;;;;;5052669;28;20249;-48
2022/05/06 11:24:56;;;;;;;23.05;19.65;;;22.60;99.90;;;;;;5052873;28;20778;-48
2022/05/06 11:27:22;;;;;;;29.95;21.48;;;22.70;99.40;;;;;;5052594;28;20166;-47
2022/05/06 11:29:52;;;;;;;26.05;20.00;;;22.70;99.90;;;;;;5052513;28;20167;-49
2022/05/06 11:32:18;;;;;;;30.15;19.23;;;22.60;99.90;;;;;;5052563;28;20182;-51
2022/05/06 11:34:59;;;;;;;38.28;18.88;;;22.60;99.90;;;;;;5052274;28;20623;-49
2022/05/06 11:37:28;;;;;;;21.25;17.15;;;22.30;99.90;;;;;;5052586;28;20186;-50
2022/05/06 11:42:39;;;;;;;27.35;18.90;;;21.70;99.20;;;;;;5052587;28;20658;-49
2022/05/06 11:47:50;;;;;;;20.25;17.92;;;22.40;98.10;;;;;;5043285;28;20174;-50
2022/05/06 11:50:15;;;;;;;20.70;18.02;;;23.00;99.40;;;;;;5040587;28;20175;-47
2022/05/06 11:52:43;;;;;;;20.42;17.85;;;23.00;98.30;;;;;;5052275;28;20171;-49
2022/05/06 11:55:09;;;;;;;24.27;20.55;;;22.90;97.50;;;;;;5051328;28;20217;-48
2022/05/06 11:57:35;;;;;;;26.08;20.25;;;22.90;97.60;;;;;;5052369;28;20612;-50
2022/05/06 12:00:05;;;;;;;22.42;18.83;;;21.70;98.00;;;;;;5052429;28;20237;-49
2022/05/06 12:02:31;;;;;;;25.88;20.67;;;22.00;99.20;;;;;;5052320;28;20620;-49
2022/05/06 12:04:56;;;;;;;27.58;21.20;;;21.70;99.90;;;;;;5051810;28;20202;-48
2022/05/06 12:07:44;;;;;;;27.45;21.83;;;21.50;99.90;;;;;;5052369;28;20174;-47
2022/05/06 12:10:10;;;;;;;24.65;20.38;;;21.70;99.90;;;;;;5052035;28;20171;-49
2022/05/06 12:12:56;;;;;;;25.02;18.73;;;22.00;99.90;;;;;;5051736;28;20193;-48
2022/05/06 12:15:31;;;;;;;26.45;19.60;;;22.00;99.90;;;;;;5051983;28;20171;-48
2022/05/06 12:18:05;;;;;;;26.45;18.77;;;22.00;99.90;;;;;;5051540;28;20198;-47
2022/05/06 12:20:42;;;;;;;27.13;21.27;;;22.00;99.90;;;;;;5046072;28;20172;-48
2022/05/06 12:23:10;;;;;;;27.80;20.10;;;22.00;99.90;;;;;;5051746;28;20170;-48
2022/05/06 12:25:38;;;;;;;25.42;19.50;;;21.90;99.90;;;;;;5051991;28;20206;-48
2022/05/06 12:28:07;;;;;;;21.05;18.35;;;22.10;99.90;;;;;;5052361;28;20179;-48
2022/05/06 12:30:35;;;;;;;18.77;15.85;;;22.10;99.90;;;;;;5052224;28;20284;-51
2022/05/06 12:33:10;;;;;;;23.63;16.55;;;22.10;99.90;;;;;;5051996;28;20216;-49
2022/05/06 12:36:01;;;;;;;19.60;14.50;;;22.40;99.90;;;;;;5051602;28;20158;-48
2022/05/06 12:38:48;;;;;;;21.92;16.88;;;22.40;98.70;;;;;;5050412;28;20511;-49
2022/05/06 12:41:19;;;;;;;21.85;16.02;;;22.60;98.00;;;;;;5051965;28;20179;-50
2022/05/06 12:43:45;;;;;;;19.88;15.60;;;22.70;98.00;;;;;;5051920;28;20207;-49
2022/05/06 12:46:11;;;;;;;15.82;13.43;;;22.90;96.80;;;;;;5051569;28;20174;-49
2022/05/06 12:51:21;;;;;;;16.23;14.27;;;23.10;94.30;;;;;;5051560;28;20213;-50
2022/05/06 12:53:46;;;;;;;20.73;14.90;;;22.90;94.50;;;;;;5051552;28;20167;-49
2022/05/06 12:56:18;;;;;;;15.02;13.43;;;23.00;94.50;;;;;;5051464;28;20254;-51
2022/05/06 12:58:44;;;;;;;17.10;15.32;;;23.10;94.30;;;;;;5051744;28;20171;-47
2022/05/06 13:01:10;;;;;;;18.42;15.52;;;23.00;93.60;;;;;;5051570;28;20651;-49
2022/05/06 13:03:35;;;;;;;19.08;14.18;;;23.10;93.00;;;;;;5051580;28;20210;-49
2022/05/06 13:06:01;;;;;;;17.27;12.48;;;23.10;92.20;;;;;;5052503;28;20234;-50
2022/05/06 13:08:27;;;;;;;13.07;9.13;;;23.00;90.40;;;;;;5055073;28;20682;-50
2022/05/06 13:10:52;;;;;;;16.77;12.30;;;23.20;86.20;;;;;;5055465;28;20171;-50
2022/05/06 13:13:18;;;;;;;16.15;11.77;;;23.40;90.90;;;;;;5054703;28;20163;-50
2022/05/06 13:15:44;;;;;;;10.88;9.77;;;23.20;89.60;;;;;;5055468;28;20177;-51